sensor_id;sensor_type;location;lat;lon;timestamp;pressure;altitude;pressure_sealevel;temperature;humidity
19526;BME280;9907;42.676;26.348;2024-03-08T00:00:20;99080.13;;;5.94;100.00
19526;BME280;9907;42.676;26.348;2024-03-08T00:02:46;99080.22;;;5.92;100.00
19526;BME280;9907;42.676;26.348;2024-03-08T00:05:13;99080.34;;;5.91;100.00
19526;BME280;9907;42.676;26.348;2024-03-08T00:07:51;99071.53;;;5.90;100.00
19526;BME280;9907;42.676;26.348;2024-03-08T00:10:18;99083.84;;;5.91;100.00
19526;BME280;9907;42.676;26.348;2024-03-08T00:12:47;99080.13;;;5.94;100.00
19526;BME280;9907;42.676;26.348;2024-03-08T00:15:15;99070.03;;;5.99;99.45
19526;BME280;9907;42.676;26.348;2024-03-08T00:17:42;99066.22;;;6.03;99.54
19526;BME280;9907;42.676;26.348;2024-03-08T00:20:08;99061.88;;;6.02;98.64
19526;BME280;9907;42.676;26.348;2024-03-08T00:22:37;99059.22;;;6.02;98.63
19526;BME280;9907;42.676;26.348;2024-03-08T00:25:04;99056.44;;;6.03;98.52
19526;BME280;9907;42.676;26.348;2024-03-08T00:27:30;99065.47;;;6.01;98.62
19526;BME280;9907;42.676;26.348;2024-03-08T00:30:01;99059.41;;;5.99;98.58
19526;BME280;9907;42.676;26.348;2024-03-08T00:32:27;99060.28;;;5.99;97.41
19526;BME280;9907;42.676;26.348;2024-03-08T00:34:53;99059.09;;;6.03;97.92
19526;BME280;9907;42.676;26.348;2024-03-08T00:37:24;99065.38;;;6.02;96.15
19526;BME280;9907;42.676;26.348;2024-03-08T00:39:52;99058.47;;;6.00;97.19
19526;BME280;9907;42.676;26.348;2024-03-08T00:42:39;99056.50;;;5.91;99.06
19526;BME280;9907;42.676;26.348;2024-03-08T00:45:46;99062.50;;;5.93;98.02
19526;BME280;9907;42.676;26.348;2024-03-08T00:48:37;99056.13;;;5.95;97.34
19526;BME280;9907;42.676;26.348;2024-03-08T00:51:03;99054.78;;;5.90;97.35
19526;BME280;9907;42.676;26.348;2024-03-08T00:53:28;99060.19;;;5.88;97.02
19526;BME280;9907;42.676;26.348;2024-03-08T00:55:54;99060.09;;;5.90;96.77
19526;BME280;9907;42.676;26.348;2024-03-08T00:58:20;99063.47;;;5.92;95.99
19526;BME280;9907;42.676;26.348;2024-03-08T01:00:58;99062.66;;;5.91;96.28
19526;BME280;9907;42.676;26.348;2024-03-08T01:03:25;99058.78;;;5.95;96.38
19526;BME280;9907;42.676;26.348;2024-03-08T01:06:18;99056.50;;;5.91;96.16
19526;BME280;9907;42.676;26.348;2024-03-08T01:08:53;99054.34;;;5.96;95.42
19526;BME280;9907;42.676;26.348;2024-03-08T01:11:18;99064.72;;;5.99;94.97
19526;BME280;9907;42.676;26.348;2024-03-08T01:13:44;99052.44;;;5.98;95.67
19526;BME280;9907;42.676;26.348;2024-03-08T01:16:12;99055.81;;;6.00;95.32
19526;BME280;9907;42.676;26.348;2024-03-08T01:18:38;99053.94;;;6.02;94.50
19526;BME280;9907;42.676;26.348;2024-03-08T01:21:04;99055.81;;;6.00;93.87
19526;BME280;9907;42.676;26.348;2024-03-08T01:23:30;99065.25;;;6.04;93.91
19526;BME280;9907;42.676;26.348;2024-03-08T01:25:56;99066.44;;;6.00;93.65
19526;BME280;9907;42.676;26.348;2024-03-08T01:28:42;99065.38;;;6.02;94.14
19526;BME280;9907;42.676;26.348;2024-03-08T01:31:29;99067.28;;;6.00;98.30
19526;BME280;9907;42.676;26.348;2024-03-08T01:34:00;99076.19;;;5.99;96.21
19526;BME280;9907;42.676;26.348;2024-03-08T01:36:47;99072.38;;;6.03;94.69
19526;BME280;9907;42.676;26.348;2024-03-08T01:39:17;99072.38;;;6.03;94.49
19526;BME280;9907;42.676;26.348;2024-03-08T01:41:58;99071.63;;;6.01;94.93
19526;BME280;9907;42.676;26.348;2024-03-08T01:44:28;99071.72;;;6.00;94.00
19526;BME280;9907;42.676;26.348;2024-03-08T01:47:04;99072.81;;;5.97;94.28
19526;BME280;9907;42.676;26.348;2024-03-08T01:49:40;99072.81;;;5.97;93.22
19526;BME280;9907;42.676;26.348;2024-03-08T01:52:07;99069.41;;;5.95;94.21
19526;BME280;9907;42.676;26.348;2024-03-08T01:54:34;99064.00;;;5.97;94.94
19526;BME280;9907;42.676;26.348;2024-03-08T01:57:15;99063.28;;;5.95;93.17
19526;BME280;9907;42.676;26.348;2024-03-08T01:59:42;99061.34;;;5.97;92.32
19526;BME280;9907;42.676;26.348;2024-03-08T02:02:10;99063.78;;;6.00;92.68
19526;BME280;9907;42.676;26.348;2024-03-08T02:04:36;99066.66;;;5.97;93.55
19526;BME280;9907;42.676;26.348;2024-03-08T02:07:04;99073.88;;;5.95;96.47
19526;BME280;9907;42.676;26.348;2024-03-08T02:09:31;99065.59;;;5.86;98.75
19526;BME280;9907;42.676;26.348;2024-03-08T02:11:57;99070.34;;;5.81;100.00
19526;BME280;9907;42.676;26.348;2024-03-08T02:14:23;99065.03;;;5.81;100.00
19526;BME280;9907;42.676;26.348;2024-03-08T02:16:49;99078.50;;;5.78;100.00
19526;BME280;9907;42.676;26.348;2024-03-08T02:19:16;99078.19;;;5.83;100.00
19526;BME280;9907;42.676;26.348;2024-03-08T02:21:41;99083.81;;;5.78;100.00
19526;BME280;9907;42.676;26.348;2024-03-08T02:24:10;99083.81;;;5.78;100.00
19526;BME280;9907;42.676;26.348;2024-03-08T02:26:38;99081.47;;;5.74;100.00
19526;BME280;9907;42.676;26.348;2024-03-08T02:29:04;99082.84;;;5.67;100.00
19526;BME280;9907;42.676;26.348;2024-03-08T02:31:35;99079.34;;;5.66;100.00
19526;BME280;9907;42.676;26.348;2024-03-08T02:34:01;99082.22;;;5.63;100.00
19526;BME280;9907;42.676;26.348;2024-03-08T02:36:27;99083.16;;;5.62;100.00
19526;BME280;9907;42.676;26.348;2024-03-08T02:38:52;99086.16;;;5.58;100.00
19526;BME280;9907;42.676;26.348;2024-03-08T02:41:20;99087.41;;;5.52;100.00
19526;BME280;9907;42.676;26.348;2024-03-08T02:43:49;99079.25;;;5.43;100.00
19526;BME280;9907;42.676;26.348;2024-03-08T02:46:15;99078.09;;;5.47;100.00
19526;BME280;9907;42.676;26.348;2024-03-08T02:48:41;99078.19;;;5.45;100.00
19526;BME280;9907;42.676;26.348;2024-03-08T02:51:06;99072.56;;;5.50;100.00
19526;BME280;9907;42.676;26.348;2024-03-08T02:53:32;99073.22;;;5.53;100.00
19526;BME280;9907;42.676;26.348;2024-03-08T02:55:57;99067.69;;;5.56;100.00
19526;BME280;9907;42.676;26.348;2024-03-08T02:58:23;99070.88;;;5.61;100.00
19526;BME280;9907;42.676;26.348;2024-03-08T03:00:48;99065.25;;;5.66;100.00
19526;BME280;9907;42.676;26.348;2024-03-08T03:03:13;99067.28;;;5.75;100.00
19526;BME280;9907;42.676;26.348;2024-03-08T03:05:40;99067.59;;;5.70;100.00
19526;BME280;9907;42.676;26.348;2024-03-08T03:08:10;99076.19;;;5.61;100.00
19526;BME280;9907;42.676;26.348;2024-03-08T03:10:37;99072.25;;;5.67;100.00
19526;BME280;9907;42.676;26.348;2024-03-08T03:13:03;99074.91;;;5.67;100.00
19526;BME280;9907;42.676;26.348;2024-03-08T03:15:29;99065.78;;;5.71;100.00
19526;BME280;9907;42.676;26.348;2024-03-08T03:18:01;99074.47;;;5.60;100.00
19526;BME280;9907;42.676;26.348;2024-03-08T03:20:29;99076.50;;;5.57;100.00
19526;BME280;9907;42.676;26.348;2024-03-08T03:23:06;99073.63;;;5.60;100.00
19526;BME280;9907;42.676;26.348;2024-03-08T03:25:35;99065.69;;;5.60;100.00
19526;BME280;9907;42.676;26.348;2024-03-08T03:28:04;99058.38;;;5.63;100.00
19526;BME280;9907;42.676;26.348;2024-03-08T03:30:30;99060.78;;;5.66;100.00
19526;BME280;9907;42.676;26.348;2024-03-08T03:32:59;99057.41;;;5.64;100.00
19526;BME280;9907;42.676;26.348;2024-03-08T03:35:32;99063.44;;;5.66;100.00
19526;BME280;9907;42.676;26.348;2024-03-08T03:37:57;99071.31;;;5.68;100.00
19526;BME280;9907;42.676;26.348;2024-03-08T03:40:38;99065.25;;;5.78;100.00
19526;BME280;9907;42.676;26.348;2024-03-08T03:43:17;99056.44;;;5.78;100.00
19526;BME280;9907;42.676;26.348;2024-03-08T03:45:43;99063.47;;;5.79;100.00
19526;BME280;9907;42.676;26.348;2024-03-08T03:48:08;99061.75;;;5.78;100.00
19526;BME280;9907;42.676;26.348;2024-03-08T03:50:35;99063.56;;;5.77;100.00
19526;BME280;9907;42.676;26.348;2024-03-08T03:53:01;99066.41;;;5.74;100.00
19526;BME280;9907;42.676;26.348;2024-03-08T03:55:29;99066.84;;;5.81;100.00
19526;BME280;9907;42.676;26.348;2024-03-08T03:58:24;99065.03;;;5.81;100.00
19526;BME280;9907;42.676;26.348;2024-03-08T04:00:52;99070.06;;;5.86;100.00
19526;BME280;9907;42.676;26.348;2024-03-08T04:03:18;99066.75;;;5.82;100.00
19526;BME280;9907;42.676;26.348;2024-03-08T04:05:47;99073.00;;;5.81;100.00
19526;BME280;9907;42.676;26.348;2024-03-08T04:08:12;99075.00;;;5.78;100.00
19526;BME280;9907;42.676;26.348;2024-03-08T04:10:38;99073.22;;;5.78;100.00
19526;BME280;9907;42.676;26.348;2024-03-08T04:13:03;99070.13;;;5.84;100.00
19526;BME280;9907;42.676;26.348;2024-03-08T04:15:29;99070.69;;;5.90;99.15
19526;BME280;9907;42.676;26.348;2024-03-08T04:17:55;99075.06;;;5.91;97.25
19526;BME280;9907;42.676;26.348;2024-03-08T04:20:22;99078.66;;;5.90;96.12
19526;BME280;9907;42.676;26.348;2024-03-08T04:22:47;99078.88;;;5.86;95.95
19526;BME280;9907;42.676;26.348;2024-03-08T04:25:14;99068.25;;;5.86;98.87
19526;BME280;9907;42.676;26.348;2024-03-08T04:27:40;99073.94;;;5.80;100.00
19526;BME280;9907;42.676;26.348;2024-03-08T04:30:06;99072.03;;;5.82;100.00
19526;BME280;9907;42.676;26.348;2024-03-08T04:32:35;99074.16;;;5.77;100.00
19526;BME280;9907;42.676;26.348;2024-03-08T04:35:01;99069.47;;;5.81;100.00
19526;BME280;9907;42.676;26.348;2024-03-08T04:37:27;99067.69;;;5.81;100.00
19526;BME280;9907;42.676;26.348;2024-03-08T04:39:55;99068.53;;;5.82;100.00
19526;BME280;9907;42.676;26.348;2024-03-08T04:42:20;99075.13;;;5.76;100.00
19526;BME280;9907;42.676;26.348;2024-03-08T04:44:46;99070.03;;;5.73;100.00
19526;BME280;9907;42.676;26.348;2024-03-08T04:47:11;99071.94;;;5.71;100.00
19526;BME280;9907;42.676;26.348;2024-03-08T04:49:37;99079.75;;;5.73;100.00
19526;BME280;9907;42.676;26.348;2024-03-08T04:52:03;99075.53;;;5.70;100.00
19526;BME280;9907;42.676;26.348;2024-03-08T04:54:29;99080.63;;;5.73;100.00
19526;BME280;9907;42.676;26.348;2024-03-08T04:57:02;99084.25;;;5.72;100.00
19526;BME280;9907;42.676;26.348;2024-03-08T04:59:32;99084.75;;;5.77;100.00
19526;BME280;9907;42.676;26.348;2024-03-08T05:01:58;99088.91;;;5.81;100.00
19526;BME280;9907;42.676;26.348;2024-03-08T05:04:25;99097.59;;;5.83;100.00
19526;BME280;9907;42.676;26.348;2024-03-08T05:06:52;99093.78;;;5.87;100.00
19526;BME280;9907;42.676;26.348;2024-03-08T05:09:22;99101.22;;;5.82;100.00
19526;BME280;9907;42.676;26.348;2024-03-08T05:12:14;99101.22;;;5.82;100.00
19526;BME280;9907;42.676;26.348;2024-03-08T05:14:42;99103.72;;;5.84;100.00
19526;BME280;9907;42.676;26.348;2024-03-08T05:17:17;99111.59;;;5.85;100.00
19526;BME280;9907;42.676;26.348;2024-03-08T05:19:48;99109.81;;;5.86;100.00
19526;BME280;9907;42.676;26.348;2024-03-08T05:22:14;99116.88;;;5.85;100.00
19526;BME280;9907;42.676;26.348;2024-03-08T05:24:39;99115.31;;;5.83;100.00
19526;BME280;9907;42.676;26.348;2024-03-08T05:27:05;99120.72;;;5.81;100.00
19526;BME280;9907;42.676;26.348;2024-03-08T05:29:30;99126.59;;;5.86;100.00
19526;BME280;9907;42.676;26.348;2024-03-08T05:31:56;99126.47;;;5.88;100.00
19526;BME280;9907;42.676;26.348;2024-03-08T05:34:26;99133.56;;;5.87;100.00
19526;BME280;9907;42.676;26.348;2024-03-08T05:36:54;99129.03;;;5.90;100.00
19526;BME280;9907;42.676;26.348;2024-03-08T05:39:20;99134.22;;;5.91;100.00
19526;BME280;9907;42.676;26.348;2024-03-08T05:41:45;99136.03;;;5.91;100.00
19526;BME280;9907;42.676;26.348;2024-03-08T05:44:12;99142.38;;;6.01;99.07
19526;BME280;9907;42.676;26.348;2024-03-08T05:46:38;99136.97;;;6.02;97.82
19526;BME280;9907;42.676;26.348;2024-03-08T05:49:04;99136.00;;;6.03;98.01
19526;BME280;9907;42.676;26.348;2024-03-08T05:51:34;99141.53;;;6.00;97.76
19526;BME280;9907;42.676;26.348;2024-03-08T05:54:04;99139.94;;;5.98;98.50
19526;BME280;9907;42.676;26.348;2024-03-08T05:56:37;99148.75;;;5.98;96.83
19526;BME280;9907;42.676;26.348;2024-03-08T05:59:03;99155.09;;;5.96;97.06
19526;BME280;9907;42.676;26.348;2024-03-08T06:01:29;99151.59;;;5.95;95.10
19526;BME280;9907;42.676;26.348;2024-03-08T06:03:55;99153.41;;;5.95;95.10
19526;BME280;9907;42.676;26.348;2024-03-08T06:06:25;99155.09;;;5.96;96.07
19526;BME280;9907;42.676;26.348;2024-03-08T06:08:51;99158.28;;;6.01;95.60
19526;BME280;9907;42.676;26.348;2024-03-08T06:11:19;99158.06;;;6.04;94.84
19526;BME280;9907;42.676;26.348;2024-03-08T06:13:48;99163.16;;;6.07;95.01
19526;BME280;9907;42.676;26.348;2024-03-08T06:16:18;99153.19;;;6.10;95.05
19526;BME280;9907;42.676;26.348;2024-03-08T06:18:44;99162.53;;;6.16;95.29
19526;BME280;9907;42.676;26.348;2024-03-08T06:21:12;99164.97;;;6.19;96.46
19526;BME280;9907;42.676;26.348;2024-03-08T06:23:38;99161.25;;;6.09;95.46
19526;BME280;9907;42.676;26.348;2024-03-08T06:26:09;99166.56;;;6.09;94.44
19526;BME280;9907;42.676;26.348;2024-03-08T06:29:04;99166.56;;;6.09;95.35
19526;BME280;9907;42.676;26.348;2024-03-08T06:31:32;99165.19;;;6.16;94.89
19526;BME280;9907;42.676;26.348;2024-03-08T06:33:58;99172.94;;;6.19;95.98
19526;BME280;9907;42.676;26.348;2024-03-08T06:36:23;99168.16;;;6.24;95.98
19526;BME280;9907;42.676;26.348;2024-03-08T06:38:49;99167.19;;;6.25;94.81
19526;BME280;9907;42.676;26.348;2024-03-08T06:41:18;99175.13;;;6.25;94.88
19526;BME280;9907;42.676;26.348;2024-03-08T06:43:44;99169.97;;;6.23;94.54
19526;BME280;9907;42.676;26.348;2024-03-08T06:46:15;99172.31;;;6.28;96.94
19526;BME280;9907;42.676;26.348;2024-03-08T06:48:43;99180.56;;;6.23;96.42
19526;BME280;9907;42.676;26.348;2024-03-08T06:51:11;99185.88;;;6.23;94.57
19526;BME280;9907;42.676;26.348;2024-03-08T06:53:36;99184.06;;;6.24;94.64
19526;BME280;9907;42.676;26.348;2024-03-08T06:56:03;99178.88;;;6.22;93.86
19526;BME280;9907;42.676;26.348;2024-03-08T06:58:38;99184.81;;;6.26;92.90
19526;BME280;9907;42.676;26.348;2024-03-08T07:01:07;99181.22;;;6.27;92.48
19526;BME280;9907;42.676;26.348;2024-03-08T07:03:41;99184.50;;;6.30;91.96
19526;BME280;9907;42.676;26.348;2024-03-08T07:06:34;99183.72;;;6.28;93.16
19526;BME280;9907;42.676;26.348;2024-03-08T07:09:01;99184.59;;;6.29;95.10
19526;BME280;9907;42.676;26.348;2024-03-08T07:11:27;99190.00;;;6.40;95.25
19526;BME280;9907;42.676;26.348;2024-03-08T07:13:53;99193.91;;;6.47;96.00
19526;BME280;9907;42.676;26.348;2024-03-08T07:16:19;99189.91;;;6.42;98.49
19526;BME280;9907;42.676;26.348;2024-03-08T07:18:49;99199.03;;;6.38;100.00
19526;BME280;9907;42.676;26.348;2024-03-08T07:21:19;99194.44;;;6.40;100.00
19526;BME280;9907;42.676;26.348;2024-03-08T07:23:45;99198.41;;;6.47;100.00
19526;BME280;9907;42.676;26.348;2024-03-08T07:26:28;99199.22;;;6.47;100.00
19526;BME280;9907;42.676;26.348;2024-03-08T07:28:56;99194.97;;;6.45;100.00
19526;BME280;9907;42.676;26.348;2024-03-08T07:31:23;99195.84;;;6.45;100.00
19526;BME280;9907;42.676;26.348;2024-03-08T07:33:51;99197.53;;;6.46;100.00
19526;BME280;9907;42.676;26.348;2024-03-08T07:36:20;99198.25;;;6.48;100.00
19526;BME280;9907;42.676;26.348;2024-03-08T07:38:47;99197.53;;;6.46;100.00
19526;BME280;9907;42.676;26.348;2024-03-08T07:41:15;99196.47;;;6.49;100.00
19526;BME280;9907;42.676;26.348;2024-03-08T07:43:59;99202.63;;;6.49;100.00
19526;BME280;9907;42.676;26.348;2024-03-08T07:46:29;99202.50;;;6.51;100.00
19526;BME280;9907;42.676;26.348;2024-03-08T07:48:57;99198.25;;;6.48;99.88
19526;BME280;9907;42.676;26.348;2024-03-08T07:51:22;99197.94;;;6.53;100.00
19526;BME280;9907;42.676;26.348;2024-03-08T07:53:56;99200.47;;;6.54;100.00
19526;BME280;9907;42.676;26.348;2024-03-08T07:56:25;99198.56;;;6.56;100.00
19526;BME280;9907;42.676;26.348;2024-03-08T07:58:51;99196.78;;;6.57;100.00
19526;BME280;9907;42.676;26.348;2024-03-08T08:04:39;99201.97;;;6.58;100.00
19526;BME280;9907;42.676;26.348;2024-03-08T08:07:04;99199.31;;;6.58;100.00
19526;BME280;9907;42.676;26.348;2024-03-08T08:09:37;99194.00;;;6.58;100.00
19526;BME280;9907;42.676;26.348;2024-03-08T08:12:03;99196.22;;;6.64;100.00
19526;BME280;9907;42.676;26.348;2024-03-08T08:14:35;99201.84;;;6.72;100.00
19526;BME280;9907;42.676;26.348;2024-03-08T08:17:03;99202.19;;;6.68;100.00
19526;BME280;9907;42.676;26.348;2024-03-08T08:19:40;99212.88;;;6.66;100.00
19526;BME280;9907;42.676;26.348;2024-03-08T08:22:11;99207.91;;;6.62;100.00
19526;BME280;9907;42.676;26.348;2024-03-08T08:24:36;99215.03;;;6.61;100.00
19526;BME280;9907;42.676;26.348;2024-03-08T08:27:04;99211.53;;;6.61;100.00
19526;BME280;9907;42.676;26.348;2024-03-08T08:29:38;99209.91;;;6.71;100.00
19526;BME280;9907;42.676;26.348;2024-03-08T08:32:06;99205.25;;;6.62;100.00
19526;BME280;9907;42.676;26.348;2024-03-08T08:34:36;99208.84;;;6.73;100.00
19526;BME280;9907;42.676;26.348;2024-03-08T08:37:06;99209.81;;;6.72;100.00
19526;BME280;9907;42.676;26.348;2024-03-08T08:39:37;99230.00;;;6.62;100.00
19526;BME280;9907;42.676;26.348;2024-03-08T08:42:03;99224.69;;;6.62;100.00
19526;BME280;9907;42.676;26.348;2024-03-08T08:44:37;99231.06;;;6.60;100.00
19526;BME280;9907;42.676;26.348;2024-03-08T08:47:03;99226.28;;;6.65;100.00
19526;BME280;9907;42.676;26.348;2024-03-08T08:49:36;99233.72;;;6.72;100.00
19526;BME280;9907;42.676;26.348;2024-03-08T08:52:03;99226.69;;;6.59;100.00
19526;BME280;9907;42.676;26.348;2024-03-08T08:54:36;99233.53;;;6.50;100.00
19526;BME280;9907;42.676;26.348;2024-03-08T08:57:04;99229.16;;;6.49;100.00
19526;BME280;9907;42.676;26.348;2024-03-08T08:59:36;99230.44;;;6.56;100.00
19526;BME280;9907;42.676;26.348;2024-03-08T09:02:07;99228.31;;;6.61;100.00
19526;BME280;9907;42.676;26.348;2024-03-08T09:04:37;99233.09;;;6.56;100.00
19526;BME280;9907;42.676;26.348;2024-03-08T09:07:02;99226.78;;;6.70;100.00
19526;BME280;9907;42.676;26.348;2024-03-08T09:09:55;99232.22;;;6.68;100.00
19526;BME280;9907;42.676;26.348;2024-03-08T09:12:24;99235.63;;;6.58;100.00
19526;BME280;9907;42.676;26.348;2024-03-08T09:15:10;99228.72;;;6.55;100.00
19526;BME280;9907;42.676;26.348;2024-03-08T09:17:38;99233.19;;;6.55;100.00
19526;BME280;9907;42.676;26.348;2024-03-08T09:20:07;99236.19;;;6.50;100.00
19526;BME280;9907;42.676;26.348;2024-03-08T09:22:34;99230.25;;;6.47;100.00
19526;BME280;9907;42.676;26.348;2024-03-08T09:25:00;99235.41;;;6.48;100.00
19526;BME280;9907;42.676;26.348;2024-03-08T09:27:33;99237.22;;;6.48;100.00
19526;BME280;9907;42.676;26.348;2024-03-08T09:30:03;99234.25;;;6.52;100.00
19526;BME280;9907;42.676;26.348;2024-03-08T09:32:38;99240.50;;;6.51;100.00
19526;BME280;9907;42.676;26.348;2024-03-08T09:35:04;99232.22;;;6.56;100.00
19526;BME280;9907;42.676;26.348;2024-03-08T09:37:35;99245.50;;;6.68;100.00
19526;BME280;9907;42.676;26.348;2024-03-08T09:40:04;99242.94;;;6.79;100.00
19526;BME280;9907;42.676;26.348;2024-03-08T09:42:35;99243.44;;;6.84;100.00
19526;BME280;9907;42.676;26.348;2024-03-08T09:45:09;99251.84;;;6.78;100.00
19526;BME280;9907;42.676;26.348;2024-03-08T09:47:41;99251.53;;;6.70;100.00
19526;BME280;9907;42.676;26.348;2024-03-08T09:50:08;99243.75;;;6.93;100.00
19526;BME280;9907;42.676;26.348;2024-03-08T09:52:38;99241.28;;;7.02;100.00
19526;BME280;9907;42.676;26.348;2024-03-08T09:55:06;99233.53;;;6.99;100.00
19526;BME280;9907;42.676;26.348;2024-03-08T09:57:53;99237.97;;;6.99;100.00
19526;BME280;9907;42.676;26.348;2024-03-08T10:00:38;99242.91;;;6.92;100.00
19526;BME280;9907;42.676;26.348;2024-03-08T10:03:03;99237.97;;;6.99;100.00
19526;BME280;9907;42.676;26.348;2024-03-08T10:05:30;99236.72;;;7.04;100.00
19526;BME280;9907;42.676;26.348;2024-03-08T10:07:58;99240.44;;;7.02;100.00
19526;BME280;9907;42.676;26.348;2024-03-08T10:10:24;99237.25;;;7.09;100.00
19526;BME280;9907;42.676;26.348;2024-03-08T10:13:02;99237.72;;;7.27;100.00
19526;BME280;9907;42.676;26.348;2024-03-08T10:15:27;99234.81;;;7.30;100.00
19526;BME280;9907;42.676;26.348;2024-03-08T10:17:55;99226.84;;;7.30;100.00
19526;BME280;9907;42.676;26.348;2024-03-08T10:20:39;99228.81;;;7.39;100.00
19526;BME280;9907;42.676;26.348;2024-03-08T10:23:06;99231.81;;;7.58;100.00
19526;BME280;9907;42.676;26.348;2024-03-08T10:25:36;99230.34;;;7.54;96.86
19526;BME280;9907;42.676;26.348;2024-03-08T10:28:05;99226.06;;;7.64;97.68
19526;BME280;9907;42.676;26.348;2024-03-08T10:30:51;99226.09;;;7.75;96.58
19526;BME280;9907;42.676;26.348;2024-03-08T10:33:16;99223.66;;;7.72;94.73
19526;BME280;9907;42.676;26.348;2024-03-08T10:35:42;99220.22;;;7.83;94.50
19526;BME280;9907;42.676;26.348;2024-03-08T10:38:08;99218.66;;;7.92;94.58
19526;BME280;9907;42.676;26.348;2024-03-08T10:40:38;99219.31;;;8.17;94.17
19526;BME280;9907;42.676;26.348;2024-03-08T10:43:25;99215.66;;;8.31;91.83
19526;BME280;9907;42.676;26.348;2024-03-08T10:48:55;99211.72;;;8.24;89.32
19526;BME280;9907;42.676;26.348;2024-03-08T10:51:24;99214.19;;;8.38;87.95
19526;BME280;9907;42.676;26.348;2024-03-08T10:53:52;99213.09;;;8.41;87.75
19526;BME280;9907;42.676;26.348;2024-03-08T10:56:17;99210.19;;;8.44;88.89
19526;BME280;9907;42.676;26.348;2024-03-08T10:58:43;99210.81;;;8.58;88.58
19526;BME280;9907;42.676;26.348;2024-03-08T11:01:09;99213.44;;;8.36;84.99
19526;BME280;9907;42.676;26.348;2024-03-08T11:03:54;99213.00;;;8.42;88.20
19526;BME280;9907;42.676;26.348;2024-03-08T11:06:31;99213.09;;;8.41;88.90
19526;BME280;9907;42.676;26.348;2024-03-08T11:12:22;99211.72;;;8.13;87.41
19526;BME280;9907;42.676;26.348;2024-03-08T11:14:54;99216.03;;;8.03;88.54
19526;BME280;9907;42.676;26.348;2024-03-08T11:19:57;99218.38;;;7.83;91.75
19526;BME280;9907;42.676;26.348;2024-03-08T11:22:32;99212.72;;;7.88;90.86
19526;BME280;9907;42.676;26.348;2024-03-08T11:25:08;99209.63;;;7.70;89.92
19526;BME280;9907;42.676;26.348;2024-03-08T11:43:06;99204.25;;;7.83;82.71
19526;BME280;9907;42.676;26.348;2024-03-08T11:45:37;99210.84;;;8.01;82.57
19526;BME280;9907;42.676;26.348;2024-03-08T11:51:31;99206.50;;;8.11;84.66
19526;BME280;9907;42.676;26.348;2024-03-08T11:56:51;99205.66;;;8.11;82.71
19526;BME280;9907;42.676;26.348;2024-03-08T11:59:17;99202.50;;;8.17;82.68
19526;BME280;9907;42.676;26.348;2024-03-08T12:01:43;99204.09;;;8.19;81.66
19526;BME280;9907;42.676;26.348;2024-03-08T12:04:37;99197.56;;;8.23;82.06
19526;BME280;9907;42.676;26.348;2024-03-08T12:07:11;99197.97;;;8.30;83.42
19526;BME280;9907;42.676;26.348;2024-03-08T12:09:38;99204.25;;;8.29;83.60
19526;BME280;9907;42.676;26.348;2024-03-08T12:15:44;99196.97;;;8.20;82.30
19526;BME280;9907;42.676;26.348;2024-03-08T12:18:54;99207.41;;;8.34;82.38
19526;BME280;9907;42.676;26.348;2024-03-08T12:21:21;99208.44;;;8.20;77.49
19526;BME280;9907;42.676;26.348;2024-03-08T12:24:10;99200.81;;;8.16;75.23
19526;BME280;9907;42.676;26.348;2024-03-08T12:26:49;99199.84;;;8.28;76.43
19526;BME280;9907;42.676;26.348;2024-03-08T12:36:50;99201.75;;;8.04;78.69
19526;BME280;9907;42.676;26.348;2024-03-08T12:49:11;99193.84;;;7.91;73.00
19526;BME280;9907;42.676;26.348;2024-03-08T12:52:03;99198.47;;;7.89;72.95
19526;BME280;9907;42.676;26.348;2024-03-08T12:54:36;99203.09;;;8.09;72.31
19526;BME280;9907;42.676;26.348;2024-03-08T12:57:10;99202.63;;;8.04;72.46
19526;BME280;9907;42.676;26.348;2024-03-08T12:59:37;99199.34;;;8.01;72.17
19526;BME280;9907;42.676;26.348;2024-03-08T13:05:19;99203.47;;;8.05;72.30
19526;BME280;9907;42.676;26.348;2024-03-08T13:07:46;99212.25;;;7.83;71.52
19526;BME280;9907;42.676;26.348;2024-03-08T13:10:13;99206.09;;;7.94;72.12
19526;BME280;9907;42.676;26.348;2024-03-08T13:12:42;99208.16;;;7.90;71.92
19526;BME280;9907;42.676;26.348;2024-03-08T13:15:08;99208.34;;;7.76;72.53
19526;BME280;9907;42.676;26.348;2024-03-08T13:17:36;99217.84;;;7.67;72.42
19526;BME280;9907;42.676;26.348;2024-03-08T13:20:02;99218.47;;;7.71;72.15
19526;BME280;9907;42.676;26.348;2024-03-08T13:22:30;99213.63;;;7.65;72.53
19526;BME280;9907;42.676;26.348;2024-03-08T13:28:04;99224.50;;;7.73;72.56
19526;BME280;9907;42.676;26.348;2024-03-08T13:30:31;99220.75;;;7.64;72.91
19526;BME280;9907;42.676;26.348;2024-03-08T13:32:56;99227.22;;;7.84;73.60
19526;BME280;9907;42.676;26.348;2024-03-08T13:35:22;99220.59;;;7.90;72.67
19526;BME280;9907;42.676;26.348;2024-03-08T13:37:52;99223.56;;;7.74;72.65
19526;BME280;9907;42.676;26.348;2024-03-08T13:40:20;99232.34;;;7.63;73.06
19526;BME280;9907;42.676;26.348;2024-03-08T13:43:21;99222.75;;;7.84;73.64
19526;BME280;9907;42.676;26.348;2024-03-08T13:45:49;99223.69;;;7.83;72.85
19526;BME280;9907;42.676;26.348;2024-03-08T13:48:35;99227.78;;;7.76;72.92
19526;BME280;9907;42.676;26.348;2024-03-08T13:51:05;99218.50;;;7.82;73.14
19526;BME280;9907;42.676;26.348;2024-03-08T13:53:50;99216.91;;;7.68;74.03
19526;BME280;9907;42.676;26.348;2024-03-08T13:56:15;99220.19;;;7.72;73.40
19526;BME280;9907;42.676;26.348;2024-03-08T13:58:41;99220.28;;;7.70;73.11
19526;BME280;9907;42.676;26.348;2024-03-08T14:01:06;99216.09;;;7.55;74.08
19526;BME280;9907;42.676;26.348;2024-03-08T14:03:36;99212.41;;;7.69;74.03
19526;BME280;9907;42.676;26.348;2024-03-08T14:06:02;99213.72;;;7.63;74.36
19526;BME280;9907;42.676;26.348;2024-03-08T14:12:21;99212.97;;;7.61;74.50
19526;BME280;9907;42.676;26.348;2024-03-08T14:24:17;99211.88;;;7.53;74.74
19526;BME280;9907;42.676;26.348;2024-03-08T14:27:04;99208.06;;;7.44;74.86
19526;BME280;9907;42.676;26.348;2024-03-08T14:29:40;99203.28;;;7.49;75.69
19526;BME280;9907;42.676;26.348;2024-03-08T14:32:11;99208.47;;;7.51;76.70
19526;BME280;9907;42.676;26.348;2024-03-08T14:38:01;99210.69;;;7.57;75.64